createdAt,value
2018-02-06T00:00:17.694Z,-5.2
2018-02-06T00:01:19.353Z,-5.3
2018-02-06T00:02:21.006Z,-5.2
2018-02-06T00:03:22.657Z,-5.3
2018-02-06T00:04:24.312Z,-5.1
2018-02-06T00:05:25.966Z,-5.2
2018-02-06T00:06:27.624Z,-5.3
2018-02-06T00:07:29.282Z,-5.4
2018-02-06T00:08:30.924Z,-5.4
2018-02-06T00:09:32.563Z,-5.2
2018-02-06T00:10:34.224Z,-5.4
2018-02-06T00:11:35.877Z,-5.4
2018-02-06T00:12:37.533Z,-5.4
2018-02-06T00:13:39.180Z,-5.4
2018-02-06T00:14:40.836Z,-5.4
2018-02-06T00:15:42.479Z,-5.4
2018-02-06T00:16:44.185Z,-5.3
2018-02-06T00:17:45.787Z,-5.4
2018-02-06T00:18:47.433Z,-5.6
2018-02-06T00:19:49.091Z,-5.6
2018-02-06T00:20:50.743Z,-5.5
2018-02-06T00:21:52.394Z,-5.7
2018-02-06T00:22:54.044Z,-5.6
2018-02-06T00:23:55.716Z,-5.7
2018-02-06T00:24:57.379Z,-5.8
2018-02-06T00:25:59.028Z,-5.7
2018-02-06T00:27:07.514Z,-5.7
2018-02-06T00:28:09.174Z,-5.8
2018-02-06T00:29:10.828Z,-5.8
2018-02-06T00:30:12.499Z,-5.8
2018-02-06T00:31:14.155Z,-5.7
2018-02-06T00:32:15.800Z,-5.6
2018-02-06T00:33:17.465Z,-5.6
2018-02-06T00:34:19.111Z,-5.8
2018-02-06T00:35:20.762Z,-5.8
2018-02-06T00:36:22.412Z,-5.8
2018-02-06T00:37:24.074Z,-5.7
2018-02-06T00:38:25.747Z,-5.8
2018-02-06T00:39:27.388Z,-5.8
2018-02-06T00:40:29.041Z,-5.8
2018-02-06T00:41:30.701Z,-5.7
2018-02-06T00:42:32.419Z,-6.0
2018-02-06T00:43:34.063Z,-5.8
2018-02-06T00:44:35.726Z,-5.8
2018-02-06T00:45:37.380Z,-5.8
2018-02-06T00:46:39.017Z,-5.8
2018-02-06T00:47:40.674Z,-5.9
2018-02-06T00:48:42.316Z,-5.9
2018-02-06T00:49:43.983Z,-5.9
2018-02-06T00:50:45.656Z,-5.7
2018-02-06T00:51:47.301Z,-6.0
2018-02-06T00:52:48.954Z,-6.0
2018-02-06T00:53:50.614Z,-5.9
2018-02-06T00:54:52.259Z,-5.8
2018-02-06T00:55:53.918Z,-6.0
2018-02-06T00:56:55.577Z,-5.8
2018-02-06T00:57:57.229Z,-5.7
2018-02-06T00:58:58.892Z,-5.7
2018-02-06T01:00:00.566Z,-5.6
2018-02-06T01:01:02.369Z,-5.8
2018-02-06T01:02:04.026Z,-5.8
2018-02-06T01:03:05.775Z,-6.0
2018-02-06T01:04:07.420Z,-6.0
2018-02-06T01:05:09.065Z,-6.1
2018-02-06T01:06:10.741Z,-5.9
2018-02-06T01:07:12.393Z,-6.1
2018-02-06T01:08:14.055Z,-6.0
2018-02-06T01:09:15.716Z,-6.0
2018-02-06T01:10:17.366Z,-6.3
2018-02-06T01:11:19.033Z,-6.1
2018-02-06T01:12:20.684Z,-5.9
2018-02-06T01:13:22.336Z,-6.0
2018-02-06T01:14:24.028Z,-6.0
2018-02-06T01:15:25.678Z,-6.3
2018-02-06T01:16:27.323Z,-6.1
2018-02-06T01:17:28.979Z,-5.9
2018-02-06T01:18:30.626Z,-6.0
2018-02-06T01:19:32.263Z,-6.0
2018-02-06T01:20:33.905Z,-6.1
2018-02-06T01:21:35.554Z,-6.1
2018-02-06T01:22:37.274Z,-6.1
2018-02-06T01:23:38.927Z,-6.0
2018-02-06T01:24:40.588Z,-6.0
2018-02-06T01:25:42.243Z,-6.1
2018-02-06T01:26:43.896Z,-6.0
2018-02-06T01:27:45.547Z,-6.0
2018-02-06T01:28:47.202Z,-6.2
2018-02-06T01:29:48.863Z,-6.1
2018-02-06T01:30:50.523Z,-6.1
2018-02-06T01:31:52.167Z,-6.0
2018-02-06T01:32:53.818Z,-6.1
2018-02-06T01:33:55.470Z,-6.1
2018-02-06T01:34:57.129Z,-6.1
2018-02-06T01:35:58.773Z,-6.1
2018-02-06T01:37:00.422Z,-6.1
2018-02-06T01:38:02.078Z,-6.3
2018-02-06T01:39:03.728Z,-6.3
2018-02-06T01:40:05.404Z,-6.3
2018-02-06T01:41:07.058Z,-6.2
2018-02-06T01:42:08.713Z,-6.1
2018-02-06T01:43:10.365Z,-6.2
2018-02-06T01:44:12.006Z,-6.2
2018-02-06T01:45:13.649Z,-6.0
2018-02-06T01:46:15.309Z,-6.1
2018-02-06T01:47:16.960Z,-6.0
2018-02-06T01:48:18.608Z,-6.0
2018-02-06T01:49:20.260Z,-6.1
2018-02-06T01:50:21.905Z,-6.0
2018-02-06T01:51:23.561Z,-6.2
2018-02-06T01:52:25.198Z,-6.0
2018-02-06T01:53:26.944Z,-6.3
2018-02-06T01:54:28.585Z,-6.5
2018-02-06T01:55:30.237Z,-6.5
2018-02-06T01:56:31.907Z,-6.3
2018-02-06T01:57:33.560Z,-6.1
2018-02-06T01:58:35.212Z,-6.1
2018-02-06T01:59:36.853Z,-6.1
2018-02-06T02:00:38.496Z,-6.1
2018-02-06T02:01:40.144Z,-6.2
2018-02-06T02:02:41.792Z,-6.1
2018-02-06T02:03:43.445Z,-6.0
2018-02-06T02:04:45.098Z,-6.1
2018-02-06T02:05:46.740Z,-6.1
2018-02-06T02:06:48.393Z,-6.2
2018-02-06T02:07:50.052Z,-6.1
2018-02-06T02:08:51.693Z,-6.4
2018-02-06T02:09:53.383Z,-6.2
2018-02-06T02:10:54.999Z,-6.4
2018-02-06T02:11:56.646Z,-6.4
2018-02-06T02:12:58.306Z,-6.5
2018-02-06T02:13:59.950Z,-6.4
2018-02-06T02:15:01.607Z,-6.4
2018-02-06T02:16:03.278Z,-6.4
2018-02-06T02:17:04.926Z,-6.4
2018-02-06T02:18:06.570Z,-6.3
2018-02-06T02:19:08.216Z,-6.2
2018-02-06T02:20:09.886Z,-6.3
2018-02-06T02:21:11.538Z,-6.4
2018-02-06T02:22:13.179Z,-6.5
2018-02-06T02:23:14.844Z,-6.5
2018-02-06T02:24:16.496Z,-6.5
2018-02-06T02:25:18.136Z,-6.4
2018-02-06T02:26:19.778Z,-6.5
2018-02-06T02:27:21.421Z,-6.5
2018-02-06T02:28:23.071Z,-6.6
2018-02-06T02:29:24.731Z,-6.5
2018-02-06T02:30:26.377Z,-6.4
2018-02-06T02:31:28.024Z,-6.5
2018-02-06T02:32:29.675Z,-6.5
2018-02-06T02:33:31.329Z,-6.4
2018-02-06T02:34:32.988Z,-6.5
2018-02-06T02:35:34.639Z,-6.4
2018-02-06T02:36:36.294Z,-6.2
2018-02-06T02:37:37.963Z,-6.1
2018-02-06T02:38:39.602Z,-6.2
2018-02-06T02:39:41.234Z,-6.4
2018-02-06T02:40:42.946Z,-6.3
2018-02-06T07:00:51.284Z,-5.8
2018-02-06T07:01:52.934Z,-5.6
2018-02-06T07:02:54.580Z,-5.7
2018-02-06T07:03:56.227Z,-5.7
2018-02-06T07:04:57.872Z,-5.7
2018-02-06T07:05:59.522Z,-5.6
2018-02-06T07:07:01.169Z,-5.7
2018-02-06T07:08:02.816Z,-5.7
2018-02-06T07:09:04.476Z,-5.7
2018-02-06T07:10:06.132Z,-5.5
2018-02-06T07:11:07.783Z,-5.6
2018-02-06T07:12:09.439Z,-5.5
2018-02-06T07:13:11.089Z,-5.7
2018-02-06T07:14:12.733Z,-5.6
2018-02-06T07:15:14.400Z,-5.7
2018-02-06T07:16:16.042Z,-5.9
2018-02-06T07:17:17.693Z,-5.8
2018-02-06T07:18:19.349Z,-5.6
2018-02-06T07:19:20.998Z,-5.4
2018-02-06T07:20:22.656Z,-5.6
2018-02-06T07:21:24.326Z,-5.6
2018-02-06T07:22:25.965Z,-5.8
2018-02-06T07:23:27.614Z,-5.8
2018-02-06T07:24:29.259Z,-5.7
2018-02-06T07:25:30.906Z,-5.7
2018-02-06T07:26:32.579Z,-5.7
2018-02-06T07:27:34.211Z,-5.8
2018-02-06T07:28:35.875Z,-5.8
2018-02-06T07:29:37.527Z,-5.8
2018-02-06T07:30:39.169Z,-5.8
2018-02-06T07:31:40.818Z,-5.8
2018-02-06T07:32:42.459Z,-5.8
2018-02-06T07:33:44.103Z,-5.7
2018-02-06T07:34:45.762Z,-5.6
2018-02-06T07:35:47.417Z,-5.8
2018-02-06T07:36:49.071Z,-5.7
2018-02-06T07:37:50.728Z,-5.8
2018-02-06T07:38:52.382Z,-5.7
2018-02-06T07:39:54.034Z,-5.7
2018-02-06T07:40:55.693Z,-5.6
2018-02-06T07:41:57.346Z,-5.7
2018-02-06T07:42:58.997Z,-5.7
2018-02-06T07:44:00.660Z,-5.7
2018-02-06T07:45:02.313Z,-5.6
2018-02-06T07:46:03.962Z,-5.5
2018-02-06T07:47:05.609Z,-5.5
2018-02-06T07:48:07.259Z,-5.4
2018-02-06T07:49:08.931Z,-5.5
2018-02-06T07:50:10.592Z,-5.4
2018-02-06T07:51:12.227Z,-5.4
2018-02-06T07:52:15.388Z,-5.5
2018-02-06T07:53:17.040Z,-5.4
2018-02-06T07:54:18.876Z,-5.4
2018-02-06T07:55:20.533Z,-5.4
2018-02-06T07:56:22.187Z,-5.4
2018-02-06T07:57:23.839Z,-5.4
2018-02-06T07:58:25.498Z,-5.4
2018-02-06T07:59:27.143Z,-5.3
2018-02-06T08:00:28.852Z,-5.3
2018-02-06T08:01:30.502Z,-5.3
2018-02-06T08:02:32.262Z,-5.1
2018-02-06T08:03:33.835Z,-5.1
2018-02-06T08:04:35.529Z,-5.1
2018-02-06T08:05:37.186Z,-5.1
2018-02-06T08:06:38.844Z,-5.0
2018-02-06T08:07:40.501Z,-5.0
2018-02-06T08:08:42.153Z,-4.8
2018-02-06T08:09:43.810Z,-4.8
2018-02-06T08:10:45.471Z,-4.8
2018-02-06T08:11:47.125Z,-4.7
2018-02-06T08:12:48.785Z,-4.7
2018-02-06T08:13:50.433Z,-4.6
2018-02-06T08:14:52.175Z,-4.6
2018-02-06T08:15:53.825Z,-4.5
2018-02-06T08:16:55.480Z,-4.6
2018-02-06T08:17:57.135Z,-4.7
2018-02-06T08:18:58.779Z,-4.5
2018-02-06T08:20:00.436Z,-4.5
2018-02-06T08:21:02.134Z,-4.5
2018-02-06T08:22:03.776Z,-4.5
2018-02-06T08:23:05.435Z,-4.6
2018-02-06T08:24:07.095Z,-4.5
2018-02-06T08:25:08.760Z,-4.4
2018-02-06T08:26:10.452Z,-4.3
2018-02-06T08:27:12.096Z,-4.2
2018-02-06T08:28:13.741Z,-4.2
2018-02-06T08:29:15.436Z,-4.2
2018-02-06T08:30:17.091Z,-4.1
2018-02-06T08:31:19.328Z,-4.2
2018-02-06T08:32:20.962Z,-4.3
2018-02-06T08:33:22.613Z,-4.2
2018-02-06T08:34:24.276Z,-4.2
2018-02-06T08:35:25.936Z,-4.3
2018-02-06T08:36:27.584Z,-4.2
2018-02-06T08:37:29.239Z,-4.2
2018-02-06T08:38:30.902Z,-4.3
2018-02-06T08:39:32.564Z,-4.2
2018-02-06T08:40:34.209Z,-4.1
2018-02-06T08:41:35.873Z,-4.0
2018-02-06T08:42:37.543Z,-3.9
2018-02-06T08:43:39.181Z,-3.7
2018-02-06T08:44:40.844Z,-3.8
2018-02-06T08:45:42.575Z,-3.7
2018-02-06T08:46:44.213Z,-3.6
2018-02-06T08:47:45.872Z,-3.7
2018-02-06T08:48:47.531Z,-3.6
2018-02-06T08:49:49.190Z,-3.5
2018-02-06T08:50:51.068Z,-3.5
2018-02-06T08:51:52.633Z,-3.4
2018-02-06T08:52:54.308Z,-3.5
2018-02-06T08:53:56.068Z,-3.6
2018-02-06T08:54:57.725Z,-3.4
2018-02-06T08:55:59.387Z,-3.4
2018-02-06T08:57:01.045Z,-3.5
2018-02-06T08:58:02.853Z,-3.4
2018-02-06T08:59:04.513Z,-3.3
2018-02-06T09:00:06.166Z,-3.3
2018-02-06T09:01:07.830Z,-3.2
2018-02-06T09:02:09.515Z,-3.2
2018-02-06T09:03:11.196Z,-3.1
2018-02-06T09:04:12.854Z,-3.1
2018-02-06T09:05:14.505Z,-2.9
2018-02-06T09:06:16.157Z,-2.9
2018-02-06T09:07:17.923Z,-2.9
2018-02-06T09:08:20.085Z,-2.7
2018-02-06T09:09:21.766Z,-2.7
2018-02-06T09:10:23.447Z,-2.6
2018-02-06T09:11:25.107Z,-2.7
2018-02-06T09:12:26.788Z,-2.5
2018-02-06T09:13:28.448Z,-2.4
2018-02-06T09:14:30.116Z,-2.6
2018-02-06T09:15:31.770Z,-2.7
2018-02-06T09:16:33.427Z,-2.4
2018-02-06T09:17:35.085Z,-2.2
2018-02-06T09:18:36.742Z,-2.1
2018-02-06T09:19:38.399Z,-2.4
2018-02-06T09:20:40.062Z,-2.4
2018-02-06T09:21:41.713Z,-2.2
2018-02-06T09:22:43.382Z,-2.2
2018-02-06T09:23:45.058Z,-2.2
2018-02-06T09:24:46.731Z,-2.0
2018-02-06T09:25:48.385Z,-1.9
2018-02-06T09:26:50.048Z,-1.8
2018-02-06T09:27:51.712Z,-1.7
2018-02-06T09:28:53.621Z,-1.6
2018-02-06T09:29:56.331Z,-1.4
2018-02-06T09:30:58.024Z,-1.1
2018-02-06T09:31:59.682Z,-0.6
2018-02-06T09:33:01.474Z,-0.8
2018-02-06T09:34:03.132Z,-0.5
2018-02-06T09:35:06.074Z,-0.7
2018-02-06T09:36:07.734Z,-0.5
2018-02-06T09:37:09.403Z,-1.4
2018-02-06T09:38:11.231Z,-1.3
2018-02-06T09:39:13.003Z,-1.3
2018-02-06T09:40:15.815Z,-1.2
2018-02-06T09:41:17.339Z,-1.2
2018-02-06T09:42:19.010Z,-1.0
2018-02-06T09:43:20.672Z,-0.9
2018-02-06T09:44:22.342Z,-0.5
2018-02-06T09:45:24.388Z,-0.5
2018-02-06T09:46:26.654Z,-1.0
2018-02-06T09:47:28.317Z,-0.6
2018-02-06T09:48:29.989Z,-0.5
2018-02-06T09:49:31.819Z,-0.6
2018-02-06T09:50:33.481Z,-0.4
2018-02-06T09:51:36.145Z,-0.1
2018-02-06T09:52:38.251Z,-0.2
2018-02-06T09:53:39.883Z,-0.2
2018-02-06T09:54:41.538Z,-0.2
2018-02-06T09:55:43.237Z,-0.2
2018-02-06T09:56:46.418Z,-0.3
2018-02-06T09:57:48.095Z,-0.1
2018-02-06T09:58:49.756Z,-0.1
2018-02-06T09:59:51.420Z,-0.0
2018-02-06T10:00:53.097Z,-0.3
2018-02-06T10:01:54.759Z,0.2
2018-02-06T10:02:56.427Z,0.4
2018-02-06T10:03:58.098Z,0.5
2018-02-06T10:04:59.767Z,0.4
2018-02-06T10:06:02.561Z,0.8
2018-02-06T10:07:05.210Z,0.9
2018-02-06T10:08:08.669Z,0.9
2018-02-06T10:09:10.382Z,0.7
2018-02-06T10:10:12.126Z,1.0
2018-02-06T10:11:13.838Z,0.5
2018-02-06T10:12:16.052Z,0.2
2018-02-06T10:13:17.770Z,0.4
2018-02-06T10:14:19.551Z,0.3
2018-02-06T10:15:23.185Z,0.2
2018-02-06T10:16:25.053Z,0.2
2018-02-06T10:17:26.881Z,0.3
2018-02-06T10:18:28.629Z,0.6
2018-02-06T10:19:31.846Z,0.8
2018-02-06T10:20:33.615Z,0.6
2018-02-06T10:21:35.386Z,0.7
2018-02-06T10:22:37.146Z,1.0
2018-02-06T10:23:38.896Z,0.9
2018-02-06T10:24:40.624Z,0.5
2018-02-06T10:25:42.410Z,1.3
2018-02-06T10:26:45.303Z,1.6
2018-02-06T10:27:47.040Z,1.6
2018-02-06T10:28:48.819Z,2.1
2018-02-06T10:29:50.669Z,2.3
2018-02-06T10:30:52.382Z,2.4
2018-02-06T10:31:54.150Z,2.5
2018-02-06T10:32:55.870Z,2.1
2018-02-06T10:33:57.613Z,2.1
2018-02-06T10:34:59.367Z,2.2
2018-02-06T10:36:01.163Z,2.0
2018-02-06T10:37:03.171Z,2.0
2018-02-06T10:38:05.039Z,2.4
2018-02-06T10:39:06.724Z,2.1
2018-02-06T10:40:08.399Z,1.9
2018-02-06T10:41:10.068Z,2.0
2018-02-06T10:42:13.100Z,1.8
2018-02-06T10:43:14.730Z,2.0
2018-02-06T10:44:19.243Z,1.9
2018-02-06T10:45:20.909Z,1.8
2018-02-06T10:46:22.637Z,1.2
2018-02-06T10:47:24.892Z,1.5
2018-02-06T10:48:27.146Z,1.7
2018-02-06T10:49:29.629Z,1.7
2018-02-06T10:50:32.164Z,1.1
2018-02-06T10:51:33.929Z,1.0
2018-02-06T10:52:36.884Z,1.2
2018-02-06T10:53:38.660Z,1.1
2018-02-06T10:54:42.836Z,1.4
2018-02-06T10:55:44.687Z,1.4
2018-02-06T11:01:41.876Z,1.6
2018-02-06T11:02:43.575Z,1.1
2018-02-06T11:03:45.227Z,0.7
2018-02-06T11:04:47.704Z,0.7
2018-02-06T11:05:49.336Z,0.5
2018-02-06T11:06:50.986Z,0.7
2018-02-06T11:07:52.650Z,0.8
2018-02-06T11:08:54.314Z,0.5
2018-02-06T11:09:55.989Z,0.6
2018-02-06T11:10:57.643Z,0.9
2018-02-06T11:11:59.451Z,0.8
2018-02-06T11:13:00.961Z,0.6
2018-02-06T11:14:02.610Z,0.4
2018-02-06T11:15:04.426Z,0.3
2018-02-06T11:16:05.913Z,0.3
2018-02-06T11:17:07.562Z,0.4
2018-02-06T11:18:09.222Z,0.3
2018-02-06T11:19:10.884Z,0.3
2018-02-06T11:20:12.532Z,0.4
2018-02-06T11:21:14.197Z,0.5
2018-02-06T11:22:15.841Z,0.7
2018-02-06T11:23:17.868Z,0.9
2018-02-06T11:24:19.534Z,0.9
2018-02-06T11:25:21.188Z,1.0
2018-02-06T11:26:22.846Z,0.9
2018-02-06T11:27:24.513Z,0.9
2018-02-06T11:28:26.181Z,0.9
2018-02-06T11:29:27.832Z,1.2
2018-02-06T11:30:29.492Z,0.9
2018-02-06T11:31:31.143Z,0.6
2018-02-06T11:32:32.799Z,0.7
2018-02-06T11:33:34.505Z,0.6
2018-02-06T11:34:36.174Z,0.5
2018-02-06T11:35:37.834Z,0.5
2018-02-06T11:36:39.503Z,0.9
2018-02-06T11:37:41.162Z,1.0
2018-02-06T11:38:42.826Z,0.8
2018-02-06T11:39:44.467Z,0.6
2018-02-06T11:40:46.137Z,0.5
2018-02-06T11:41:47.804Z,0.6
2018-02-06T11:42:49.539Z,0.7
2018-02-06T11:43:51.200Z,1.0
2018-02-06T11:44:52.858Z,0.8
2018-02-06T11:45:54.515Z,0.6
2018-02-06T11:46:56.186Z,0.3
2018-02-06T11:47:57.870Z,0.4
2018-02-06T11:48:59.572Z,0.5
2018-02-06T11:50:01.225Z,0.7
2018-02-06T11:51:02.943Z,0.5
2018-02-06T11:52:04.638Z,0.4
2018-02-06T11:53:06.380Z,0.5
2018-02-06T11:54:08.037Z,0.8
2018-02-06T11:55:09.687Z,0.7
2018-02-06T11:56:11.342Z,0.7
2018-02-06T11:57:13.002Z,0.7
2018-02-06T11:58:14.666Z,0.8
2018-02-06T11:59:16.318Z,0.9
2018-02-06T12:00:17.988Z,1.0
2018-02-06T12:01:19.670Z,1.2
2018-02-06T12:02:21.349Z,1.0
2018-02-06T12:03:23.077Z,1.1
2018-02-06T12:04:24.884Z,1.5
2018-02-06T12:05:26.669Z,1.6
2018-02-06T12:06:28.328Z,1.6
2018-02-06T12:07:29.990Z,1.8
2018-02-06T12:08:35.619Z,1.5
2018-02-06T12:09:37.259Z,1.2
2018-02-06T12:10:38.925Z,1.1
2018-02-06T12:11:40.584Z,0.7
2018-02-06T12:12:42.250Z,0.3
2018-02-06T12:13:43.995Z,0.5
2018-02-06T12:14:45.663Z,0.7
2018-02-06T12:15:47.311Z,0.8
2018-02-06T12:16:48.968Z,0.5
2018-02-06T12:17:50.623Z,0.6
2018-02-06T12:18:52.284Z,0.6
2018-02-06T12:19:53.945Z,0.6
2018-02-06T12:20:55.605Z,0.7
2018-02-06T12:21:57.269Z,1.0
2018-02-06T12:22:58.999Z,0.9
2018-02-06T12:24:00.661Z,0.6
2018-02-06T12:25:02.329Z,0.5
2018-02-06T12:26:03.977Z,0.5
2018-02-06T12:27:05.693Z,0.4
2018-02-06T12:28:07.346Z,0.5
2018-02-06T12:29:09.005Z,0.4
2018-02-06T12:30:10.667Z,0.5
2018-02-06T12:31:12.323Z,0.6
2018-02-06T12:32:13.971Z,0.5
2018-02-06T12:33:15.636Z,0.3
2018-02-06T12:34:17.292Z,0.4
2018-02-06T12:35:18.935Z,0.3
2018-02-06T12:36:20.598Z,0.3
2018-02-06T12:37:22.249Z,0.3
2018-02-06T12:38:23.919Z,0.2
2018-02-06T12:39:25.573Z,0.2
2018-02-06T12:40:27.230Z,0.0
2018-02-06T12:41:28.878Z,0.0
2018-02-06T12:42:30.548Z,0.0
2018-02-06T12:43:32.204Z,0.2
2018-02-06T12:44:33.865Z,0.2
2018-02-06T12:45:35.513Z,0.2
2018-02-06T12:46:37.165Z,0.2
2018-02-06T12:47:38.831Z,0.1
2018-02-06T12:48:40.492Z,-0.1
2018-02-06T12:49:42.141Z,0.0
2018-02-06T12:50:43.853Z,0.0
2018-02-06T12:51:45.474Z,0.1
2018-02-06T12:52:47.125Z,0.0
2018-02-06T12:53:48.793Z,0.1
2018-02-06T12:54:50.443Z,0.1
2018-02-06T12:55:52.116Z,0.0
2018-02-06T12:56:53.771Z,-0.1
2018-02-06T12:57:55.577Z,0.0
2018-02-06T12:58:57.225Z,-0.1
2018-02-06T12:59:58.891Z,-0.1
2018-02-06T13:01:00.548Z,-0.1
2018-02-06T13:02:02.204Z,0.0
2018-02-06T13:03:03.871Z,0.0
2018-02-06T13:04:05.534Z,0.1
2018-02-06T13:05:07.241Z,0.1
2018-02-06T13:06:08.862Z,0.3
2018-02-06T13:07:10.531Z,-0.1
2018-02-06T13:08:12.223Z,0.1
2018-02-06T13:09:13.901Z,0.2
2018-02-06T13:10:15.554Z,0.2
2018-02-06T13:11:17.217Z,0.3
2018-02-06T13:12:18.889Z,0.4
2018-02-06T13:13:20.534Z,0.5
2018-02-06T13:14:22.183Z,0.2
2018-02-06T13:15:23.856Z,0.3
2018-02-06T13:16:25.509Z,0.2
2018-02-06T13:17:27.173Z,0.1
2018-02-06T13:18:28.837Z,0.1
2018-02-06T13:19:30.483Z,0.3
2018-02-06T13:20:32.154Z,0.3
2018-02-06T13:21:33.807Z,0.3
2018-02-06T13:22:35.462Z,0.2
2018-02-06T13:23:37.113Z,0.3
2018-02-06T13:24:38.779Z,0.2
2018-02-06T13:25:40.455Z,0.1
2018-02-06T13:26:42.116Z,0.1
2018-02-06T13:27:43.767Z,0.1
2018-02-06T13:28:45.427Z,0.0
2018-02-06T13:29:47.084Z,0.0
2018-02-06T13:30:48.754Z,0.2
2018-02-06T13:31:50.600Z,0.2
2018-02-06T13:32:52.274Z,0.2
2018-02-06T13:33:53.988Z,0.1
2018-02-06T13:34:55.671Z,0.1
2018-02-06T13:35:57.335Z,0.2
2018-02-06T13:36:58.994Z,0.3
2018-02-06T13:38:00.652Z,0.2
2018-02-06T13:39:02.387Z,0.3
2018-02-06T13:40:04.087Z,0.2
2018-02-06T13:41:05.735Z,0.2
2018-02-06T13:42:07.397Z,0.2
2018-02-06T13:43:09.047Z,0.1
2018-02-06T13:44:10.719Z,0.2
2018-02-06T13:45:12.369Z,0.2
2018-02-06T13:46:14.048Z,0.4
2018-02-06T13:47:15.705Z,0.3
2018-02-06T13:48:17.353Z,0.1
2018-02-06T13:49:19.017Z,0.2
2018-02-06T13:50:20.685Z,-0.0
2018-02-06T13:51:22.351Z,-0.1
2018-02-06T13:52:24.027Z,-0.1
2018-02-06T13:53:25.690Z,0.0
2018-02-06T13:54:27.349Z,0.2
2018-02-06T13:55:29.007Z,0.2
2018-02-06T13:56:30.680Z,0.3
2018-02-06T13:57:32.328Z,0.3
2018-02-06T13:58:33.990Z,0.4
2018-02-06T13:59:35.658Z,0.5
2018-02-06T14:00:37.309Z,0.3
2018-02-06T14:01:38.961Z,0.3
2018-02-06T14:02:40.654Z,0.4
2018-02-06T14:03:42.310Z,0.3
2018-02-06T14:04:43.969Z,0.4
2018-02-06T14:05:45.622Z,0.4
2018-02-06T14:06:47.349Z,0.3
2018-02-06T14:07:48.957Z,0.3
2018-02-06T14:08:50.607Z,0.3
2018-02-06T14:09:52.278Z,0.4
2018-02-06T14:10:53.941Z,0.3
2018-02-06T14:11:55.672Z,0.2
2018-02-06T14:12:57.361Z,0.2
2018-02-06T14:13:59.089Z,0.2
2018-02-06T14:15:00.774Z,0.2
2018-02-06T14:16:02.434Z,0.3
2018-02-06T14:17:04.091Z,0.3
2018-02-06T14:18:05.753Z,0.3
2018-02-06T14:19:07.394Z,0.3
2018-02-06T14:20:09.057Z,0.2
2018-02-06T14:21:10.718Z,0.1
2018-02-06T14:22:12.454Z,0.0
2018-02-06T14:23:14.108Z,0.0
2018-02-06T14:24:15.770Z,-0.1
2018-02-06T14:25:17.465Z,-0.0
2018-02-06T14:26:19.117Z,0.0
2018-02-06T14:27:20.768Z,0.0
2018-02-06T14:28:22.441Z,-0.1
2018-02-06T14:29:24.094Z,-0.2
2018-02-06T14:30:25.857Z,-0.3
2018-02-06T14:31:27.512Z,-0.1
2018-02-06T14:32:29.169Z,0.0
2018-02-06T14:33:30.823Z,0.0
2018-02-06T14:34:32.522Z,0.1
2018-02-06T14:35:34.173Z,0.2
2018-02-06T14:36:35.829Z,0.0
2018-02-06T14:37:37.483Z,0.2
2018-02-06T14:38:39.138Z,0.2
2018-02-06T14:39:40.778Z,0.0
2018-02-06T14:40:42.436Z,0.1
2018-02-06T14:41:44.121Z,0.1
2018-02-06T14:42:45.769Z,0.2
2018-02-06T14:43:47.474Z,0.1
2018-02-06T14:44:49.160Z,0.1
2018-02-06T14:45:50.817Z,0.2
2018-02-06T14:46:52.470Z,0.2
2018-02-06T14:47:54.125Z,0.2
2018-02-06T14:48:55.774Z,0.2
2018-02-06T14:49:57.429Z,0.2
2018-02-06T14:50:59.164Z,0.2
2018-02-06T14:52:00.822Z,0.2
2018-02-06T14:53:02.543Z,0.1
2018-02-06T14:54:04.242Z,0.1
2018-02-06T14:55:05.938Z,0.2
2018-02-06T15:01:20.074Z,0.1
2018-02-06T15:02:21.755Z,-0.1
2018-02-06T15:03:23.408Z,-0.1
2018-02-06T15:04:25.073Z,0.0
2018-02-06T15:05:26.720Z,0.1
2018-02-06T15:06:28.373Z,0.1
2018-02-06T15:07:30.041Z,0.1
2018-02-06T15:08:31.694Z,0.1
2018-02-06T15:09:33.358Z,-0.0
2018-02-06T15:10:35.020Z,0.2
2018-02-06T15:11:36.682Z,0.1
2018-02-06T15:12:38.348Z,0.1
2018-02-06T15:13:40.057Z,0.1
2018-02-06T15:14:41.729Z,0.0
2018-02-06T15:15:43.381Z,0.1
2018-02-06T15:16:45.028Z,0.1
2018-02-06T15:17:46.664Z,0.1
2018-02-06T15:18:48.333Z,-0.1
2018-02-06T15:19:49.991Z,0.1
2018-02-06T15:20:51.671Z,0.1
2018-02-06T15:21:53.331Z,-0.0
2018-02-06T15:22:54.991Z,-0.1
2018-02-06T15:23:56.648Z,-0.1
2018-02-06T15:24:58.310Z,-0.1
2018-02-06T15:25:59.961Z,-0.1
2018-02-06T15:27:01.626Z,-0.1
2018-02-06T15:28:03.597Z,-0.2
2018-02-06T15:29:05.259Z,-0.2
2018-02-06T15:30:06.921Z,-0.3
2018-02-06T15:31:08.593Z,-0.2
2018-02-06T15:32:10.282Z,-0.3
2018-02-06T15:33:11.988Z,-0.4
2018-02-06T15:34:13.654Z,-0.3
2018-02-06T15:35:15.322Z,-0.4
2018-02-06T15:36:16.977Z,-0.4
2018-02-06T15:37:18.641Z,-0.6
2018-02-06T15:38:20.294Z,-0.4
2018-02-06T15:39:21.961Z,-0.4
2018-02-06T15:40:23.619Z,-0.5
2018-02-06T15:41:25.292Z,-0.5
2018-02-06T15:42:27.066Z,-0.6
2018-02-06T15:43:28.738Z,-0.7
2018-02-06T15:44:30.396Z,-0.7
2018-02-06T15:45:32.046Z,-0.7
2018-02-06T15:46:33.701Z,-0.7
2018-02-06T15:47:35.347Z,-0.7
2018-02-06T15:48:36.998Z,-0.8
2018-02-06T15:49:38.661Z,-0.7
2018-02-06T15:50:40.347Z,-0.7
2018-02-06T15:51:42.007Z,-0.7
2018-02-06T15:52:43.671Z,-0.7
2018-02-06T15:53:45.336Z,-0.7
2018-02-06T15:54:46.991Z,-0.6
2018-02-06T15:55:48.657Z,-0.7
2018-02-06T15:56:50.313Z,-0.6
2018-02-06T15:57:51.994Z,-0.7
2018-02-06T15:58:53.649Z,-0.5
2018-02-06T15:59:55.312Z,-0.7
2018-02-06T16:00:56.974Z,-0.6
2018-02-06T16:01:58.632Z,-0.6
2018-02-06T16:03:00.294Z,-0.7
2018-02-06T16:04:01.970Z,-0.8
2018-02-06T16:05:03.628Z,-0.8
2018-02-06T16:06:05.282Z,-0.9
2018-02-06T16:07:06.945Z,-0.8
2018-02-06T16:08:08.591Z,-0.9
2018-02-06T16:09:10.261Z,-1.0
2018-02-06T16:10:11.933Z,-0.9
2018-02-06T16:11:13.603Z,-1.0
2018-02-06T16:12:15.266Z,-1.0
2018-02-06T16:13:16.930Z,-1.1
2018-02-06T16:14:18.573Z,-1.1
2018-02-06T16:15:20.252Z,-1.1
2018-02-06T16:16:21.893Z,-1.1
2018-02-06T16:17:23.551Z,-1.1
2018-02-06T16:18:25.203Z,-1.1
2018-02-06T16:19:26.848Z,-1.1
2018-02-06T16:20:28.515Z,-1.1
2018-02-06T16:21:30.171Z,-1.1
2018-02-06T16:22:31.826Z,-1.1
2018-02-06T16:23:33.484Z,-1.1
2018-02-06T16:24:35.152Z,-1.1
2018-02-06T16:25:36.807Z,-1.1
2018-02-06T16:26:38.460Z,-1.2
2018-02-06T16:27:40.110Z,-1.2
2018-02-06T16:28:41.769Z,-1.1
2018-02-06T16:29:43.418Z,-1.2
2018-02-06T16:30:45.091Z,-1.3
2018-02-06T16:31:46.736Z,-1.2
2018-02-06T16:32:48.442Z,-1.3
2018-02-06T16:33:50.059Z,-1.1
2018-02-06T16:34:51.721Z,-1.2
2018-02-06T16:35:53.374Z,-1.1
2018-02-06T16:36:55.027Z,-1.2
2018-02-06T16:37:56.723Z,-1.3
2018-02-06T16:38:58.377Z,-1.2
2018-02-06T16:40:00.027Z,-1.2
2018-02-06T16:41:01.676Z,-1.2
2018-02-06T16:42:03.336Z,-1.2
2018-02-06T16:43:05.001Z,-1.2
2018-02-06T16:44:06.662Z,-1.2
2018-02-06T16:45:08.324Z,-1.1
2018-02-06T16:46:09.974Z,-1.2
2018-02-06T16:47:11.654Z,-1.2
2018-02-06T16:48:13.308Z,-1.3
2018-02-06T16:49:14.968Z,-1.4
2018-02-06T16:50:16.621Z,-1.4
2018-02-06T16:51:24.314Z,-1.2
2018-02-06T16:52:31.499Z,-1.3
2018-02-06T16:53:40.758Z,-1.3
2018-02-06T16:57:24.209Z,-1.3
2018-02-06T16:58:27.946Z,-1.3
2018-02-06T16:59:33.044Z,-1.3
2018-02-06T17:00:37.084Z,-1.2
2018-02-06T17:01:40.754Z,-1.2
2018-02-06T17:02:45.400Z,-1.3
2018-02-06T17:03:49.814Z,-1.3
2018-02-06T17:04:54.600Z,-1.3
2018-02-06T17:06:01.864Z,-1.4
2018-02-06T17:07:06.960Z,-1.4
2018-02-06T17:08:15.856Z,-1.3
2018-02-06T17:09:20.501Z,-1.3
2018-02-06T17:10:26.103Z,-1.4
2018-02-06T17:11:33.338Z,-1.3
2018-02-06T17:12:39.693Z,-1.2
2018-02-06T19:00:56.077Z,-1.4
2018-02-06T19:01:57.725Z,-1.4
2018-02-06T19:03:49.667Z,-1.4
2018-02-06T19:04:51.351Z,-1.4
2018-02-06T19:06:43.279Z,-1.3
2018-02-06T19:07:44.939Z,-1.4
2018-02-06T19:08:46.594Z,-1.5
2018-02-06T19:09:48.255Z,-1.3
2018-02-06T19:10:49.895Z,-1.5
2018-02-06T19:11:51.548Z,-1.4
2018-02-06T19:12:53.189Z,-1.4
2018-02-06T19:13:54.853Z,-1.5
2018-02-06T19:14:56.505Z,-1.5
2018-02-06T19:15:58.181Z,-1.5
2018-02-06T19:16:59.825Z,-1.5
2018-02-06T19:18:01.476Z,-1.4
2018-02-06T19:19:03.134Z,-1.6
2018-02-06T19:20:04.784Z,-1.5
2018-02-06T19:21:06.429Z,-1.5
2018-02-06T19:22:08.126Z,-1.4
2018-02-06T19:23:09.874Z,-1.4
2018-02-06T19:24:11.756Z,-1.5
2018-02-06T19:25:13.441Z,-1.4
2018-02-06T19:26:15.096Z,-1.4
2018-02-06T19:27:16.747Z,-1.5
2018-02-06T19:28:18.437Z,-1.5
2018-02-06T19:29:20.165Z,-1.4
2018-02-06T19:30:21.840Z,-1.4
2018-02-06T19:31:23.495Z,-1.5
2018-02-06T19:32:25.145Z,-1.5
2018-02-06T19:33:26.796Z,-1.5
2018-02-06T19:34:29.914Z,-1.5
2018-02-06T19:35:31.597Z,-1.5
2018-02-06T19:36:33.240Z,-1.3
2018-02-06T19:37:34.902Z,-1.4
2018-02-06T19:38:36.562Z,-1.5
2018-02-06T19:39:38.227Z,-1.5
2018-02-06T19:40:39.880Z,-1.5
2018-02-06T19:41:41.681Z,-1.5
2018-02-06T19:42:43.334Z,-1.4
2018-02-06T19:43:44.989Z,-1.5
2018-02-06T19:44:46.651Z,-1.5
2018-02-06T19:45:48.316Z,-1.4
2018-02-06T19:46:49.981Z,-1.5
2018-02-06T19:47:52.232Z,-1.5
2018-02-06T19:48:53.882Z,-1.4
2018-02-06T19:49:55.543Z,-1.5
2018-02-06T19:50:57.222Z,-1.4
2018-02-06T19:51:58.860Z,-1.5
2018-02-06T19:53:00.580Z,-1.5
2018-02-06T19:54:03.092Z,-1.4
2018-02-06T19:55:04.748Z,-1.6
2018-02-06T19:56:06.476Z,-1.5
2018-02-06T19:57:08.183Z,-1.5
2018-02-06T19:58:09.838Z,-1.4
2018-02-06T19:59:11.513Z,-1.5
2018-02-06T20:00:13.163Z,-1.6
2018-02-06T20:01:14.813Z,-1.5
2018-02-06T20:02:16.482Z,-1.6
2018-02-06T20:03:18.214Z,-1.5
2018-02-06T20:04:19.876Z,-1.6
2018-02-06T20:05:21.533Z,-1.6
2018-02-06T20:06:23.185Z,-1.5
2018-02-06T20:07:24.865Z,-1.6
2018-02-06T20:08:26.518Z,-1.5
2018-02-06T20:09:28.164Z,-1.5
2018-02-06T20:10:29.823Z,-1.7
2018-02-06T20:11:31.474Z,-1.7
2018-02-06T20:12:33.149Z,-1.7